Current Weather

Grissom Arb

Peru, Indiana (KGUS)

Report from: Tuesday, April 23, 2024 2:55 AM EDT
Current time: Tuesday, April 23, 2024 3:24 AM EDT

Nearby weather – Weather history – Daily summaries
Weather forecast

Temperature12.1°C (53.8°F)
Dew point0.5°C (32.9°F)
Winds 13 kts (6.7 m/s, 15 mph) Southwest (220°)
Visibility10 mi. (16.1 km)
Clouds Ceiling: Broken clouds 11,000 ft. (3,353 m)
Broken clouds 14,000 ft. (4,267 m)
Altimeter29.93 in.Hg (1014 mB)
Relative humidity45 %
Density altitude-266 ft. (-81 m)
Sea-level pressure101.4 kPa (1014 mB, 29.94 in.Hg)
Remarks Fully automated report
System requires maintenance
Automated weather observing station with precipitation discriminator
Flight conditions Visual Meteorological Conditions
Raw dataKGUS 230655Z AUTO 22013KT 10SM BKN110 BKN140 12/01 A2993 RMK AO2 SLP138 T01210005 $
An error has occurred. This application may no longer respond until reloaded. Reload 🗙